Time;durP1;ratioP1;P1;durP2;ratioP2;P2;SDS_P1;SDS_P2;PMS_P1;PMS_P2;Temp;Humidity;BMP_temperature;BMP_pressure;BME280_temperature;BME280_humidity;BME280_pressure;Samples;Min_cycle;Max_cycle;Signal;HPM_P1;HPM_P2
2022/08/01 00:01:44;;;;;;;5.00;1.90;;;;;;;;;;5075467;28;20280;-70
2022/08/01 00:04:09;;;;;;;4.00;1.80;;;;;;;;;;5075498;28;20483;-70
2022/08/01 00:06:35;;;;;;;4.83;2.10;;;;;;;;;;5075429;28;20036;-70
2022/08/01 00:09:00;;;;;;;3.90;1.92;;;;;;;;;;5075260;28;20284;-70
2022/08/01 00:11:25;;;;;;;3.45;1.88;;;;;;;;;;5074070;28;20170;-70
2022/08/01 00:13:51;;;;;;;7.28;1.85;;;;;;;;;;5075306;28;20366;-70
2022/08/01 00:16:16;;;;;;;3.90;2.00;;;;;;;;;;5075362;28;20028;-70
2022/08/01 00:18:41;;;;;;;3.60;1.88;;;;;;;;;;5057178;28;20021;-70
2022/08/01 00:21:07;;;;;;;2.20;1.90;;;;;;;;;;5074986;28;20020;-70
2022/08/01 00:23:33;;;;;;;2.75;1.80;;;;;;;;;;5074124;28;20542;-70
2022/08/01 00:25:58;;;;;;;2.60;2.00;;;;;;;;;;5074967;28;20032;-70
2022/08/01 00:28:23;;;;;;;6.93;2.08;;;;;;;;;;5074828;28;20104;-70
2022/08/01 00:30:48;;;;;;;2.17;1.90;;;;;;;;;;5056756;28;20020;-69
2022/08/01 00:33:14;;;;;;;5.07;2.10;;;;;;;;;;5074021;28;20653;-70
2022/08/01 00:35:39;;;;;;;3.93;2.00;;;;;;;;;;5074640;28;20623;-70
2022/08/01 00:38:04;;;;;;;2.90;1.90;;;;;;;;;;5074991;28;20257;-70
2022/08/01 00:40:29;;;;;;;2.60;2.00;;;;;;;;;;5056942;28;20280;-70
2022/08/01 00:42:55;;;;;;;4.83;1.97;;;;;;;;;;5074844;28;20020;-70
2022/08/01 00:45:20;;;;;;;6.15;1.92;;;;;;;;;;5074572;28;20261;-69
2022/08/01 00:47:45;;;;;;;3.50;2.17;;;;;;;;;;5074601;28;20025;-70
2022/08/01 00:50:11;;;;;;;2.92;2.00;;;;;;;;;;5074431;28;20273;-70
2022/08/01 00:52:38;;;;;;;3.15;2.08;;;;;;;;;;5074651;28;20036;-69
2022/08/01 00:55:05;;;;;;;6.10;1.70;;;;;;;;;;5074787;28;20024;-70
2022/08/01 00:57:30;;;;;;;2.90;1.95;;;;;;;;;;5073188;28;20107;-70
2022/08/01 00:59:56;;;;;;;3.30;1.83;;;;;;;;;;5074385;28;20103;-70
2022/08/01 01:02:21;;;;;;;3.72;2.15;;;;;;;;;;5074369;28;20500;-69
2022/08/01 01:04:46;;;;;;;2.47;1.90;;;;;;;;;;5075309;28;20059;-70
2022/08/01 01:07:18;;;;;;;3.33;1.80;;;;;;;;;;5056870;28;20840;-70
2022/08/01 01:09:50;;;;;;;2.60;2.00;;;;;;;;;;5056732;28;20452;-71
2022/08/01 01:12:26;;;;;;;3.28;2.15;;;;;;;;;;5074119;28;20020;-71
2022/08/01 01:15:36;;;;;;;5.32;2.28;;;;;;;;;;5074517;28;20427;-70
2022/08/01 01:18:05;;;;;;;5.82;2.33;;;;;;;;;;5036303;28;20494;-69
2022/08/01 01:20:35;;;;;;;2.90;2.10;;;;;;;;;;5055507;28;20068;-70
2022/08/01 01:23:16;;;;;;;3.17;2.47;;;;;;;;;;5074427;28;20393;-70
2022/08/01 01:26:10;;;;;;;4.13;2.05;;;;;;;;;;5056131;28;20024;-71
2022/08/01 01:28:55;;;;;;;3.92;2.10;;;;;;;;;;5074120;28;20020;-71
2022/08/01 01:31:23;;;;;;;5.25;2.00;;;;;;;;;;5057660;28;20028;-70
2022/08/01 01:33:50;;;;;;;3.05;2.08;;;;;;;;;;5073970;28;20028;-70
2022/08/01 01:36:17;;;;;;;3.53;2.10;;;;;;;;;;5073649;28;20044;-70
2022/08/01 01:38:45;;;;;;;3.42;1.90;;;;;;;;;;5073972;28;20024;-70
2022/08/01 01:41:12;;;;;;;2.92;2.08;;;;;;;;;;5073015;28;20025;-70
2022/08/01 01:43:39;;;;;;;5.68;2.28;;;;;;;;;;5073676;28;20085;-69
2022/08/01 01:46:07;;;;;;;3.90;2.00;;;;;;;;;;5074114;28;20046;-70
2022/08/01 01:48:34;;;;;;;4.88;2.15;;;;;;;;;;5073956;28;20020;-69
2022/08/01 01:51:00;;;;;;;2.10;1.90;;;;;;;;;;5055685;28;20028;-70
2022/08/01 01:53:28;;;;;;;3.20;2.20;;;;;;;;;;5073950;28;20020;-71
2022/08/01 01:55:56;;;;;;;3.90;2.33;;;;;;;;;;5055517;28;20032;-69
2022/08/01 01:58:23;;;;;;;4.13;2.15;;;;;;;;;;5074410;28;20024;-70
2022/08/01 02:00:51;;;;;;;4.18;2.00;;;;;;;;;;5073759;28;20039;-70
2022/08/01 02:03:18;;;;;;;3.08;1.92;;;;;;;;;;5075141;28;20111;-69
2022/08/01 02:05:43;;;;;;;4.40;2.22;;;;;;;;;;5076116;28;20037;-70
2022/08/01 02:08:11;;;;;;;2.83;1.90;;;;;;;;;;5073406;28;20041;-70
2022/08/01 02:10:38;;;;;;;2.75;2.10;;;;;;;;;;5055288;28;20024;-71
2022/08/01 02:13:06;;;;;;;3.90;1.73;;;;;;;;;;5073480;28;20020;-70
2022/08/01 02:15:33;;;;;;;3.13;2.20;;;;;;;;;;5073010;28;20471;-70
2022/08/01 02:18:00;;;;;;;2.78;2.10;;;;;;;;;;5073401;28;20029;-70
2022/08/01 02:20:29;;;;;;;3.00;2.10;;;;;;;;;;5073354;28;20431;-70
2022/08/01 02:23:05;;;;;;;4.13;2.20;;;;;;;;;;5073153;28;20028;-70
2022/08/01 02:25:41;;;;;;;3.75;2.00;;;;;;;;;;5074729;28;20032;-70
2022/08/01 02:28:10;;;;;;;2.83;2.20;;;;;;;;;;5076041;28;20036;-70
2022/08/01 02:30:38;;;;;;;5.25;2.00;;;;;;;;;;5075432;28;20020;-71
2022/08/01 02:33:14;;;;;;;11.60;2.20;;;;;;;;;;5075568;28;20032;-70
2022/08/01 02:35:42;;;;;;;2.10;1.90;;;;;;;;;;5075607;28;20047;-70
2022/08/01 02:38:10;;;;;;;8.13;2.25;;;;;;;;;;5076031;28;20032;-70
2022/08/01 02:40:38;;;;;;;3.83;2.08;;;;;;;;;;5075741;28;20024;-69
2022/08/01 02:43:06;;;;;;;5.65;2.08;;;;;;;;;;5075444;28;20109;-69
2022/08/01 02:45:34;;;;;;;4.90;2.10;;;;;;;;;;5075290;28;20539;-70
2022/08/01 02:48:07;;;;;;;3.78;2.20;;;;;;;;;;5075423;28;20056;-70
2022/08/01 02:50:34;;;;;;;3.93;2.10;;;;;;;;;;5076299;28;20024;-69
2022/08/01 02:53:01;;;;;;;3.80;2.17;;;;;;;;;;5076600;28;20347;-69
2022/08/01 02:55:27;;;;;;;5.15;2.20;;;;;;;;;;5059931;28;20028;-69
2022/08/01 02:57:54;;;;;;;3.15;2.20;;;;;;;;;;5078775;28;20115;-70
2022/08/01 03:00:20;;;;;;;2.83;2.20;;;;;;;;;;5079174;28;20036;-69
2022/08/01 03:02:48;;;;;;;3.45;1.90;;;;;;;;;;5077741;28;20025;-70
2022/08/01 03:05:14;;;;;;;3.35;2.20;;;;;;;;;;5076474;28;20054;-69
2022/08/01 03:07:41;;;;;;;4.75;2.17;;;;;;;;;;5076713;28;20035;-69
2022/08/01 03:10:08;;;;;;;6.43;2.22;;;;;;;;;;5076858;28;20035;-69
2022/08/01 03:12:34;;;;;;;3.70;2.20;;;;;;;;;;5077604;28;20026;-80
2022/08/01 03:15:01;;;;;;;3.60;2.10;;;;;;;;;;5081385;28;20032;-81
2022/08/01 03:17:28;;;;;;;3.90;2.15;;;;;;;;;;5080664;28;20029;-80
2022/08/01 03:19:55;;;;;;;6.15;2.13;;;;;;;;;;5081073;28;20112;-80
2022/08/01 03:22:24;;;;;;;3.42;2.13;;;;;;;;;;5080838;28;20493;-80
2022/08/01 03:24:52;;;;;;;4.97;2.20;;;;;;;;;;5080900;28;20038;-81
2022/08/01 03:27:20;;;;;;;5.88;2.55;;;;;;;;;;5080251;28;20028;-80
2022/08/01 03:29:47;;;;;;;3.45;2.30;;;;;;;;;;5080467;28;20073;-79
2022/08/01 03:32:14;;;;;;;3.55;2.03;;;;;;;;;;5080418;28;20055;-79
2022/08/01 03:34:40;;;;;;;3.08;2.40;;;;;;;;;;5081022;28;20025;-79
2022/08/01 03:37:12;;;;;;;4.50;2.30;;;;;;;;;;5080145;28;20030;-80
2022/08/01 03:39:51;;;;;;;4.38;2.10;;;;;;;;;;5080699;28;20036;-80
2022/08/01 03:42:23;;;;;;;3.95;2.40;;;;;;;;;;5079433;28;20024;-80
2022/08/01 03:44:54;;;;;;;3.58;2.35;;;;;;;;;;5079592;28;20028;-80
2022/08/01 03:47:24;;;;;;;5.38;2.30;;;;;;;;;;5063535;28;20064;-81
2022/08/01 03:49:52;;;;;;;5.50;2.25;;;;;;;;;;5063024;28;20021;-82
2022/08/01 04:37:26;;;;;;;;;;;;;;;;;;;;;
2022/08/01 05:09:45;;;;;;;4.00;2.20;;;;;;;;;;5055665;28;20052;-81
2022/08/01 05:12:20;;;;;;;12.13;2.47;;;;;;;;;;5056662;28;20045;-80
2022/08/01 05:15:06;;;;;;;5.10;2.60;;;;;;;;;;5056303;28;20021;-81
2022/08/01 05:17:39;;;;;;;3.42;2.17;;;;;;;;;;5057605;28;20027;-80
2022/08/01 05:20:54;;;;;;;4.37;2.23;;;;;;;;;;5056473;28;20497;-81
2022/08/01 05:23:19;;;;;;;3.22;2.30;;;;;;;;;;5056078;28;20459;-81
2022/08/01 05:26:05;;;;;;;3.70;2.65;;;;;;;;;;5056113;28;20028;-80
2022/08/01 05:28:33;;;;;;;3.72;2.47;;;;;;;;;;5057869;28;20059;-80
2022/08/01 05:31:50;;;;;;;5.10;2.65;;;;;;;;;;5055771;28;20024;-79
2022/08/01 05:34:43;;;;;;;4.63;2.30;;;;;;;;;;5053764;28;20032;-81
2022/08/01 05:37:15;;;;;;;;;;;;;;;;;;5055393;28;20031;-80
2022/08/01 05:39:45;;;;;;;4.13;2.53;;;;;;;;;;5055841;28;20008;-80
2022/08/01 05:42:13;;;;;;;2.78;2.20;;;;;;;;;;5054561;28;20409;-79
2022/08/01 05:44:54;;;;;;;4.30;1.83;;;;;;;;;;5055732;28;20052;-81
2022/08/01 05:47:22;;;;;;;2.95;2.10;;;;;;;;;;5056631;28;20055;-82
2022/08/01 05:49:47;;;;;;;2.10;1.90;;;;;;;;;;5055215;28;20101;-80
2022/08/01 06:13:40;;;;;;;3.78;1.75;;;;;;;;;;4344276;22;20053;-80
2022/08/01 06:33:14;;;;;;;2.30;1.73;;;;;;;;;;3469146;22;20336;-81
2022/08/01 06:59:17;;;;;;;4.18;1.90;;;;;;;;;;3083776;22;20117;-82
2022/08/01 08:55:44;;;;;;;2.25;1.50;;;;;;;;;;4957973;29;20456;-79
2022/08/01 09:29:08;;;;;;;2.13;1.45;;;;;;;;;;5057502;28;20414;-82
2022/08/01 09:43:00;;;;;;;1.40;1.23;;;;;;;;;;4958087;29;20103;-80
2022/08/01 09:55:58;;;;;;;4.63;1.40;;;;;;;;;;4870392;29;20041;-80
2022/08/01 09:58:24;;;;;;;1.40;1.30;;;;;;;;;;4940879;29;20118;-85
2022/08/01 10:01:47;;;;;;;1.77;1.30;;;;;;;;;;4976155;28;20074;-84
2022/08/01 10:04:20;;;;;;;2.85;1.40;;;;;;;;;;5021871;28;20033;-84
2022/08/01 10:07:22;;;;;;;4.47;1.20;;;;;;;;;;5080049;28;20520;-82
2022/08/01 10:09:48;;;;;;;1.80;1.20;;;;;;;;;;5058856;28;20410;-78
2022/08/01 10:12:18;;;;;;;1.27;1.17;;;;;;;;;;5077108;28;20036;-79
2022/08/01 10:14:46;;;;;;;1.25;0.82;;;;;;;;;;5077280;28;20032;-78
2022/08/01 10:17:17;;;;;;;0.93;0.90;;;;;;;;;;5058186;28;20028;-79
2022/08/01 10:19:54;;;;;;;4.20;1.00;;;;;;;;;;5058374;28;20516;-80
2022/08/01 10:22:26;;;;;;;1.10;1.00;;;;;;;;;;5078043;28;20031;-80
2022/08/01 10:25:01;;;;;;;1.27;1.00;;;;;;;;;;5060258;28;20021;-77
2022/08/01 10:27:29;;;;;;;3.13;1.10;;;;;;;;;;5058308;28;20036;-77
2022/08/01 10:30:03;;;;;;;1.15;1.05;;;;;;;;;;5059473;28;20024;-78
2022/08/01 10:32:30;;;;;;;2.17;1.10;;;;;;;;;;5076356;28;20032;-80
2022/08/01 10:34:56;;;;;;;6.55;1.10;;;;;;;;;;5077091;28;20021;-78
2022/08/01 10:37:24;;;;;;;1.75;0.90;;;;;;;;;;5077760;28;20032;-79
2022/08/01 10:39:53;;;;;;;2.25;0.90;;;;;;;;;;5076430;28;20029;-78
2022/08/01 10:42:24;;;;;;;1.58;0.95;;;;;;;;;;5076327;28;20100;-79
2022/08/01 10:44:51;;;;;;;2.70;1.02;;;;;;;;;;5076880;28;20519;-79
2022/08/01 10:47:27;;;;;;;0.80;0.80;;;;;;;;;;5076434;28;20028;-78
2022/08/01 10:50:08;;;;;;;2.40;0.85;;;;;;;;;;5075822;28;20080;-78
2022/08/01 10:52:35;;;;;;;0.82;0.80;;;;;;;;;;5076369;28;20028;-79
2022/08/01 10:55:04;;;;;;;0.93;0.90;;;;;;;;;;5076169;28;20025;-79
2022/08/01 10:57:46;;;;;;;0.80;0.80;;;;;;;;;;5076621;28;20103;-77
2022/08/01 11:00:19;;;;;;;0.85;0.85;;;;;;;;;;5076063;28;20055;-79
2022/08/01 11:03:03;;;;;;;0.70;0.70;;;;;;;;;;5076306;28;20027;-78
2022/08/01 11:05:32;;;;;;;1.40;0.80;;;;;;;;;;5076871;28;20048;-79
2022/08/01 11:08:05;;;;;;;2.15;0.70;;;;;;;;;;5076114;28;20025;-78
2022/08/01 11:10:36;;;;;;;;;;;;;;;;;;5058992;28;20393;-79
2022/08/01 11:13:05;;;;;;;0.68;0.68;;;;;;;;;;5076558;28;20010;-79
2022/08/01 11:15:30;;;;;;;1.05;0.60;;;;;;;;;;5079548;28;20397;-78
2022/08/01 11:17:56;;;;;;;3.60;0.68;;;;;;;;;;5080050;28;20024;-77
2022/08/01 11:20:30;;;;;;;0.60;0.60;;;;;;;;;;5080128;28;20044;-78
2022/08/01 11:22:58;;;;;;;1.13;0.70;;;;;;;;;;5080544;28;20047;-77
2022/08/01 11:25:23;;;;;;;1.02;0.63;;;;;;;;;;5079940;28;20077;-79
2022/08/01 11:28:08;;;;;;;1.40;0.57;;;;;;;;;;5062125;28;20028;-78
2022/08/01 11:30:36;;;;;;;0.50;0.50;;;;;;;;;;5062268;28;20115;-78
2022/08/01 11:33:01;;;;;;;0.52;0.52;;;;;;;;;;5080501;28;20020;-78
2022/08/01 11:35:28;;;;;;;1.42;0.55;;;;;;;;;;5079878;28;20050;-77
2022/08/01 11:37:56;;;;;;;0.40;0.40;;;;;;;;;;5061932;28;20054;-78
2022/08/01 11:40:25;;;;;;;3.10;0.60;;;;;;;;;;5080214;28;20074;-78
2022/08/01 11:43:13;;;;;;;4.78;0.60;;;;;;;;;;5080064;28;20029;-78
2022/08/01 11:45:52;;;;;;;6.57;0.55;;;;;;;;;;5080279;28;20048;-78
2022/08/01 11:48:19;;;;;;;1.13;0.50;;;;;;;;;;5061493;28;20025;-77
2022/08/01 11:50:45;;;;;;;1.42;0.65;;;;;;;;;;5079460;28;20038;-77
2022/08/01 11:53:10;;;;;;;2.60;0.68;;;;;;;;;;5061853;28;20060;-78
2022/08/01 11:55:35;;;;;;;1.13;0.50;;;;;;;;;;5061027;28;20500;-78
2022/08/01 11:58:06;;;;;;;1.60;0.80;;;;;;;;;;5079289;28;20637;-77
2022/08/01 12:00:32;;;;;;;2.47;0.75;;;;;;;;;;5080041;28;20048;-78
2022/08/01 12:03:06;;;;;;;17.05;1.20;;;;;;;;;;5079264;28;20394;-78
2022/08/01 12:05:34;;;;;;;3.58;0.90;;;;;;;;;;5078268;28;20024;-77
2022/08/01 12:08:00;;;;;;;4.03;0.98;;;;;;;;;;5078486;28;20062;-78
2022/08/01 12:10:35;;;;;;;1.73;1.30;;;;;;;;;;5077899;28;20111;-77
2022/08/01 12:13:02;;;;;;;3.72;0.82;;;;;;;;;;5060509;28;20024;-77
2022/08/01 12:15:35;;;;;;;4.50;1.25;;;;;;;;;;5078096;28;20077;-79
2022/08/01 12:18:04;;;;;;;1.10;0.88;;;;;;;;;;5060282;28;20073;-77
2022/08/01 12:20:37;;;;;;;1.02;0.90;;;;;;;;;;5077753;28;20028;-79
2022/08/01 12:23:07;;;;;;;1.95;0.80;;;;;;;;;;5078053;28;20032;-79
2022/08/01 12:25:34;;;;;;;1.80;0.70;;;;;;;;;;5077303;28;20044;-78
2022/08/01 12:28:04;;;;;;;6.10;0.90;;;;;;;;;;5078615;28;20074;-79
2022/08/01 12:30:30;;;;;;;2.42;0.88;;;;;;;;;;5078813;28;20040;-79
2022/08/01 12:32:56;;;;;;;3.38;0.70;;;;;;;;;;5079832;28;20478;-78
2022/08/01 12:35:25;;;;;;;0.98;0.60;;;;;;;;;;5062648;28;20127;-78
2022/08/01 12:37:58;;;;;;;3.83;0.70;;;;;;;;;;5062931;28;20036;-78
2022/08/01 12:40:28;;;;;;;1.25;0.80;;;;;;;;;;5079432;28;20024;-75
2022/08/01 12:42:56;;;;;;;2.35;0.70;;;;;;;;;;5079285;28;20366;-78
2022/08/01 12:45:25;;;;;;;1.05;0.65;;;;;;;;;;5079346;28;20025;-77
2022/08/01 12:47:52;;;;;;;0.60;0.60;;;;;;;;;;5078290;28;20036;-79
2022/08/01 12:50:21;;;;;;;1.65;0.80;;;;;;;;;;5078493;28;20359;-78
2022/08/01 12:52:47;;;;;;;0.70;0.60;;;;;;;;;;5077868;28;20024;-79
2022/08/01 12:55:28;;;;;;;1.63;0.80;;;;;;;;;;5078573;28;20059;-83
2022/08/01 12:58:10;;;;;;;0.82;0.80;;;;;;;;;;5077631;28;20021;-78
2022/08/01 13:00:38;;;;;;;1.75;0.82;;;;;;;;;;5059714;28;20047;-78
2022/08/01 13:03:15;;;;;;;0.90;0.80;;;;;;;;;;5078588;28;20032;-79
2022/08/01 13:05:56;;;;;;;3.70;0.80;;;;;;;;;;5077704;28;20103;-78
2022/08/01 13:08:28;;;;;;;2.25;0.60;;;;;;;;;;5078691;28;20104;-77
2022/08/01 13:11:02;;;;;;;1.57;0.60;;;;;;;;;;5078831;28;20074;-79
2022/08/01 13:13:37;;;;;;;;;;;;;;;;;;5061494;28;20261;-81
2022/08/01 13:16:05;;;;;;;0.70;0.60;;;;;;;;;;5060592;28;19963;-80
2022/08/01 13:18:34;;;;;;;1.02;0.60;;;;;;;;;;5077572;28;20032;-78
2022/08/01 13:21:21;;;;;;;0.95;0.80;;;;;;;;;;5058797;28;20021;-79
2022/08/01 13:24:12;;;;;;;0.80;0.65;;;;;;;;;;5060274;28;20028;-79
2022/08/01 13:26:42;;;;;;;1.25;0.60;;;;;;;;;;5078648;28;20440;-78
2022/08/01 13:29:08;;;;;;;4.40;0.77;;;;;;;;;;5061622;28;20017;-79
2022/08/01 13:31:36;;;;;;;0.85;0.60;;;;;;;;;;5079818;28;20032;-79
2022/08/01 13:34:01;;;;;;;0.60;0.60;;;;;;;;;;5080586;28;20087;-78
2022/08/01 13:36:28;;;;;;;1.85;0.57;;;;;;;;;;5061233;28;20025;-79
2022/08/01 13:41:41;;;;;;;0.98;0.60;;;;;;;;;;5080271;28;20027;-80
2022/08/01 13:44:08;;;;;;;3.03;0.40;;;;;;;;;;5080237;28;20021;-78
2022/08/01 13:46:34;;;;;;;1.92;0.40;;;;;;;;;;5080735;28;20031;-81
2022/08/01 13:49:00;;;;;;;1.48;0.80;;;;;;;;;;5079848;28;20366;-79
2022/08/01 13:51:25;;;;;;;0.60;0.60;;;;;;;;;;5061243;28;20069;-80
2022/08/01 13:53:50;;;;;;;3.07;0.50;;;;;;;;;;5079228;28;20017;-80
2022/08/01 13:56:17;;;;;;;5.00;0.50;;;;;;;;;;5078617;28;20027;-79
2022/08/01 13:58:42;;;;;;;0.60;0.60;;;;;;;;;;5078877;28;20106;-80
2022/08/01 14:01:07;;;;;;;2.45;0.50;;;;;;;;;;5079251;28;20033;-80
2022/08/01 14:03:33;;;;;;;4.63;0.70;;;;;;;;;;5078289;28;20016;-78
2022/08/01 14:05:58;;;;;;;1.53;0.70;;;;;;;;;;5059326;28;20857;-80
2022/08/01 14:08:23;;;;;;;0.65;0.57;;;;;;;;;;5077766;28;20635;-85
2022/08/01 14:10:48;;;;;;;3.70;0.68;;;;;;;;;;5079037;28;20098;-78
2022/08/01 14:13:14;;;;;;;0.60;0.60;;;;;;;;;;5059566;28;20508;-79
2022/08/01 14:15:39;;;;;;;0.60;0.60;;;;;;;;;;5060041;28;20352;-79
2022/08/01 14:18:05;;;;;;;3.92;0.70;;;;;;;;;;5079692;28;20281;-80
2022/08/01 14:20:30;;;;;;;0.55;0.55;;;;;;;;;;5078501;28;20600;-78
2022/08/01 14:22:56;;;;;;;1.07;0.90;;;;;;;;;;5078060;28;20063;-78
2022/08/01 14:25:21;;;;;;;1.27;0.70;;;;;;;;;;5078081;28;20037;-81
2022/08/01 14:27:47;;;;;;;2.70;0.90;;;;;;;;;;5078672;28;20094;-79
2022/08/01 14:30:15;;;;;;;0.75;0.47;;;;;;;;;;5079678;28;20365;-79
2022/08/01 14:32:40;;;;;;;0.82;0.70;;;;;;;;;;5078748;28;20424;-80
2022/08/01 14:35:06;;;;;;;0.60;0.60;;;;;;;;;;5077841;28;20016;-81
2022/08/01 14:37:32;;;;;;;0.95;0.80;;;;;;;;;;5077468;28;20686;-79
2022/08/01 14:39:58;;;;;;;0.68;0.60;;;;;;;;;;5077067;28;20025;-80
2022/08/01 14:42:24;;;;;;;0.50;0.47;;;;;;;;;;5077921;28;20054;-81
2022/08/01 14:44:49;;;;;;;1.50;0.90;;;;;;;;;;5079022;28;20548;-80
2022/08/01 14:47:18;;;;;;;2.03;0.60;;;;;;;;;;5078975;28;20394;-80
2022/08/01 14:49:43;;;;;;;0.98;0.75;;;;;;;;;;5082435;28;20032;-80
2022/08/01 14:52:08;;;;;;;2.97;0.90;;;;;;;;;;5082204;28;20029;-79
2022/08/01 14:54:36;;;;;;;1.15;0.80;;;;;;;;;;5083115;28;20027;-84
2022/08/01 14:57:02;;;;;;;1.55;0.77;;;;;;;;;;5082594;28;20024;-77
2022/08/01 14:59:27;;;;;;;0.70;0.70;;;;;;;;;;5082445;28;20078;-80
2022/08/01 15:01:52;;;;;;;1.03;0.77;;;;;;;;;;5082229;28;20481;-80
2022/08/01 15:04:18;;;;;;;2.73;0.77;;;;;;;;;;5081311;28;20336;-80
2022/08/01 15:06:44;;;;;;;0.73;0.68;;;;;;;;;;5081826;28;20252;-81
2022/08/01 15:09:10;;;;;;;2.22;0.90;;;;;;;;;;5082993;28;20351;-81
2022/08/01 15:11:35;;;;;;;0.60;0.60;;;;;;;;;;5080921;28;20087;-80
2022/08/01 15:16:44;;;;;;;1.00;0.75;;;;;;;;;;5080481;28;20054;-81
2022/08/01 15:19:09;;;;;;;0.93;0.60;;;;;;;;;;5080574;28;20028;-80
2022/08/01 15:21:35;;;;;;;2.42;0.70;;;;;;;;;;5080854;28;20032;-80
2022/08/01 15:24:00;;;;;;;1.08;0.63;;;;;;;;;;5080345;28;20139;-80
2022/08/01 15:26:25;;;;;;;3.17;0.80;;;;;;;;;;5079812;28;20070;-81
2022/08/01 15:28:51;;;;;;;1.03;0.80;;;;;;;;;;5062337;28;20021;-82
2022/08/01 15:31:16;;;;;;;1.63;0.85;;;;;;;;;;5061398;28;20322;-83
2022/08/01 15:33:42;;;;;;;2.13;0.80;;;;;;;;;;5080888;28;20099;-80
2022/08/01 15:36:07;;;;;;;0.60;0.60;;;;;;;;;;5080861;28;20031;-82
2022/08/01 15:38:32;;;;;;;2.43;0.70;;;;;;;;;;5079801;28;20025;-80
2022/08/01 15:40:58;;;;;;;0.60;0.60;;;;;;;;;;5080079;28;20309;-80
2022/08/01 15:43:23;;;;;;;1.45;0.80;;;;;;;;;;5080066;28;20389;-80
2022/08/01 15:45:48;;;;;;;0.77;0.73;;;;;;;;;;5080215;28;20028;-80
2022/08/01 15:48:14;;;;;;;0.75;0.70;;;;;;;;;;5079852;28;20346;-81
2022/08/01 15:50:39;;;;;;;0.60;0.60;;;;;;;;;;5080560;28;20035;-82
2022/08/01 15:53:06;;;;;;;0.80;0.73;;;;;;;;;;5080021;28;20028;-81
2022/08/01 15:55:31;;;;;;;1.08;0.60;;;;;;;;;;5080378;28;20265;-80
2022/08/01 15:57:56;;;;;;;1.55;0.60;;;;;;;;;;5080430;28;20028;-79
2022/08/01 16:00:21;;;;;;;0.90;0.73;;;;;;;;;;5079302;28;20157;-81
2022/08/01 16:02:47;;;;;;;2.78;0.98;;;;;;;;;;5079734;28;20070;-81
2022/08/01 16:05:12;;;;;;;1.80;0.90;;;;;;;;;;5080039;28;20024;-79
2022/08/01 16:07:38;;;;;;;0.73;0.60;;;;;;;;;;5080140;28;20199;-80
2022/08/01 16:10:04;;;;;;;1.10;0.88;;;;;;;;;;5060907;28;20032;-79
2022/08/01 16:12:29;;;;;;;0.90;0.80;;;;;;;;;;5061805;28;20663;-81
2022/08/01 16:14:55;;;;;;;0.60;0.60;;;;;;;;;;5062105;28;20119;-82
2022/08/01 16:17:20;;;;;;;1.20;0.80;;;;;;;;;;5094067;28;20245;-83
2022/08/01 16:19:46;;;;;;;1.10;0.70;;;;;;;;;;5093140;28;20031;-78
2022/08/01 16:22:11;;;;;;;2.40;0.70;;;;;;;;;;5094292;28;20285;-76
2022/08/01 16:24:36;;;;;;;1.47;0.70;;;;;;;;;;5093735;28;20265;-77
2022/08/01 16:27:04;;;;;;;1.63;0.60;;;;;;;;;;5085112;28;20021;-78
2022/08/01 16:29:30;;;;;;;4.13;0.70;;;;;;;;;;5064728;28;20032;-77
2022/08/01 16:31:56;;;;;;;0.63;0.63;;;;;;;;;;5082870;28;20017;-77
2022/08/01 16:34:21;;;;;;;2.97;0.70;;;;;;;;;;5082112;28;20031;-76
2022/08/01 16:36:47;;;;;;;2.90;0.57;;;;;;;;;;5080230;28;20032;-77
2022/08/01 16:39:12;;;;;;;0.50;0.50;;;;;;;;;;5081818;28;20039;-76
2022/08/01 16:41:37;;;;;;;0.70;0.60;;;;;;;;;;5080317;28;20074;-77
2022/08/01 16:44:02;;;;;;;0.70;0.70;;;;;;;;;;5079903;28;20028;-76
2022/08/01 16:46:28;;;;;;;0.83;0.70;;;;;;;;;;5081870;28;20604;-78
2022/08/01 16:48:53;;;;;;;2.05;0.70;;;;;;;;;;5081622;28;20607;-77
2022/08/01 16:51:19;;;;;;;0.63;0.60;;;;;;;;;;5080719;28;20038;-75
2022/08/01 16:53:44;;;;;;;1.15;0.50;;;;;;;;;;5080611;28;20024;-76
2022/08/01 16:56:09;;;;;;;0.80;0.70;;;;;;;;;;5079894;28;20029;-79
2022/08/01 16:58:34;;;;;;;0.53;0.53;;;;;;;;;;5080566;28;20722;-78
2022/08/01 17:01:00;;;;;;;0.47;0.47;;;;;;;;;;5080276;28;20318;-78
2022/08/01 17:03:25;;;;;;;0.63;0.50;;;;;;;;;;5079493;28;20301;-77
2022/08/01 17:05:53;;;;;;;2.17;0.50;;;;;;;;;;5079824;28;20017;-78
2022/08/01 17:08:18;;;;;;;0.88;0.80;;;;;;;;;;5078671;28;20021;-76
2022/08/01 17:10:44;;;;;;;0.85;0.63;;;;;;;;;;5078895;28;20113;-77
2022/08/01 17:13:10;;;;;;;1.43;0.60;;;;;;;;;;5078848;28;20526;-77
2022/08/01 17:15:35;;;;;;;2.88;0.70;;;;;;;;;;5079221;28;20040;-78
2022/08/01 17:18:02;;;;;;;1.27;0.70;;;;;;;;;;5078796;28;20103;-79
2022/08/01 17:20:28;;;;;;;0.50;0.50;;;;;;;;;;5077557;28;20032;-78
2022/08/01 17:22:56;;;;;;;3.58;0.70;;;;;;;;;;5060887;28;20024;-79
2022/08/01 17:25:23;;;;;;;1.98;0.50;;;;;;;;;;5077268;28;20027;-79
2022/08/01 17:27:50;;;;;;;2.10;0.60;;;;;;;;;;5059416;28;20063;-77
2022/08/01 17:30:16;;;;;;;1.13;0.60;;;;;;;;;;5077703;28;20016;-77
2022/08/01 17:32:46;;;;;;;3.15;0.70;;;;;;;;;;5077479;28;20020;-79
2022/08/01 17:35:11;;;;;;;1.05;0.70;;;;;;;;;;5077858;28;20028;-78
2022/08/01 17:37:38;;;;;;;2.63;0.53;;;;;;;;;;5077721;28;20035;-78
2022/08/01 17:40:05;;;;;;;0.60;0.60;;;;;;;;;;5077932;28;20782;-78
2022/08/01 17:42:30;;;;;;;0.60;0.60;;;;;;;;;;5078637;28;20024;-79
2022/08/01 17:44:58;;;;;;;0.67;0.67;;;;;;;;;;5060137;28;20028;-80
2022/08/01 17:47:24;;;;;;;0.60;0.60;;;;;;;;;;5078272;28;20336;-79
2022/08/01 17:49:50;;;;;;;0.60;0.60;;;;;;;;;;5077792;28;20016;-78
2022/08/01 17:52:15;;;;;;;0.75;0.50;;;;;;;;;;5077183;28;20382;-77
2022/08/01 17:54:41;;;;;;;0.55;0.52;;;;;;;;;;5059905;28;20115;-77
2022/08/01 17:57:06;;;;;;;3.70;0.52;;;;;;;;;;5059816;28;20059;-77
2022/08/01 17:59:31;;;;;;;0.43;0.43;;;;;;;;;;5078138;28;20043;-80
2022/08/01 18:01:56;;;;;;;1.23;0.50;;;;;;;;;;5077065;28;20432;-78
2022/08/01 18:04:22;;;;;;;1.13;0.70;;;;;;;;;;5077222;28;20257;-78
2022/08/01 18:06:47;;;;;;;0.50;0.50;;;;;;;;;;5058960;28;20046;-78
2022/08/01 18:09:12;;;;;;;0.60;0.60;;;;;;;;;;5076906;28;20031;-79
2022/08/01 18:11:41;;;;;;;0.50;0.50;;;;;;;;;;5077212;28;20266;-78
2022/08/01 18:14:06;;;;;;;0.60;0.60;;;;;;;;;;5077027;28;20432;-78
2022/08/01 18:16:31;;;;;;;1.25;0.50;;;;;;;;;;5076844;28;20020;-78
2022/08/01 18:18:56;;;;;;;1.83;0.60;;;;;;;;;;5077248;28;20452;-79
2022/08/01 18:21:22;;;;;;;0.63;0.60;;;;;;;;;;5076790;28;20412;-80
2022/08/01 18:23:47;;;;;;;0.57;0.57;;;;;;;;;;5058952;28;20277;-78
2022/08/01 18:26:12;;;;;;;0.43;0.43;;;;;;;;;;5076755;28;20406;-78
2022/08/01 18:28:39;;;;;;;0.90;0.70;;;;;;;;;;5076462;28;20292;-78
2022/08/01 18:31:08;;;;;;;1.00;0.40;;;;;;;;;;5076291;28;20028;-78
2022/08/01 18:33:34;;;;;;;1.27;0.75;;;;;;;;;;5060099;28;20027;-79
2022/08/01 18:36:02;;;;;;;0.95;0.57;;;;;;;;;;5077205;28;20047;-76
2022/08/01 18:38:28;;;;;;;0.85;0.50;;;;;;;;;;5077142;28;20029;-78
2022/08/01 18:40:53;;;;;;;0.60;0.60;;;;;;;;;;5078221;28;20103;-77
2022/08/01 18:43:18;;;;;;;0.50;0.50;;;;;;;;;;5076853;28;20028;-77
2022/08/01 18:45:44;;;;;;;1.83;0.70;;;;;;;;;;5077735;28;20028;-79
2022/08/01 18:48:10;;;;;;;0.97;0.60;;;;;;;;;;5078266;28;20276;-77
2022/08/01 18:50:35;;;;;;;0.50;0.50;;;;;;;;;;5078301;28;20028;-77
2022/08/01 18:53:00;;;;;;;1.65;0.55;;;;;;;;;;5077815;28;20123;-77
2022/08/01 18:55:26;;;;;;;0.67;0.60;;;;;;;;;;5077502;28;20020;-78
2022/08/01 18:57:51;;;;;;;0.60;0.60;;;;;;;;;;5076295;28;20860;-78
2022/08/01 19:00:16;;;;;;;2.33;0.50;;;;;;;;;;5076386;28;20793;-78
2022/08/01 19:02:41;;;;;;;1.38;0.40;;;;;;;;;;5077044;28;20777;-78
2022/08/01 19:05:09;;;;;;;0.73;0.53;;;;;;;;;;5059258;28;20020;-77
2022/08/01 19:07:34;;;;;;;1.05;0.60;;;;;;;;;;5078323;28;20265;-77
2022/08/01 19:10:00;;;;;;;0.57;0.50;;;;;;;;;;5077552;28;20043;-78
2022/08/01 19:12:25;;;;;;;0.55;0.55;;;;;;;;;;5077774;28;20107;-78
2022/08/01 19:14:50;;;;;;;0.73;0.50;;;;;;;;;;5076534;28;20029;-78
2022/08/01 19:17:15;;;;;;;0.57;0.53;;;;;;;;;;5077747;28;20352;-78
2022/08/01 19:19:41;;;;;;;1.88;0.70;;;;;;;;;;5077431;28;20277;-78
2022/08/01 19:22:06;;;;;;;2.47;0.55;;;;;;;;;;5077604;28;20029;-79
2022/08/01 19:24:32;;;;;;;0.77;0.60;;;;;;;;;;5078272;28;20111;-79
2022/08/01 19:27:00;;;;;;;1.10;0.50;;;;;;;;;;5077237;28;20273;-76
2022/08/01 19:29:29;;;;;;;0.70;0.70;;;;;;;;;;5076646;28;20104;-77
2022/08/01 19:31:56;;;;;;;0.60;0.60;;;;;;;;;;5058099;28;20063;-76
2022/08/01 19:34:23;;;;;;;1.27;0.70;;;;;;;;;;5077164;28;20021;-79
2022/08/01 19:36:51;;;;;;;0.80;0.77;;;;;;;;;;5061487;28;20035;-79
2022/08/01 19:39:20;;;;;;;1.23;0.70;;;;;;;;;;5080592;28;20020;-79
2022/08/01 19:41:47;;;;;;;0.70;0.50;;;;;;;;;;5062829;28;20024;-78
2022/08/01 19:44:14;;;;;;;0.70;0.70;;;;;;;;;;5079808;28;20040;-78
2022/08/01 19:46:40;;;;;;;1.17;0.70;;;;;;;;;;5061696;28;20036;-79
2022/08/01 19:49:06;;;;;;;1.30;0.75;;;;;;;;;;5079642;28;20028;-79
2022/08/01 19:51:40;;;;;;;8.07;0.80;;;;;;;;;;5062182;28;20036;-76
2022/08/01 19:54:05;;;;;;;;;;;;;;;;;;5079904;28;20512;-78
2022/08/01 19:56:49;;;;;;;0.52;0.52;;;;;;;;;;5080321;28;19909;-78
2022/08/01 19:59:18;;;;;;;;;;;;;;;;;;5062825;28;20414;-79
2022/08/01 20:01:44;;;;;;;1.63;0.65;;;;;;;;;;5080938;28;19908;-79
2022/08/01 20:04:10;;;;;;;2.58;0.63;;;;;;;;;;5061979;28;20127;-78